Time;durP1;ratioP1;P1;durP2;ratioP2;P2;SDS_P1;SDS_P2;PMS_P1;PMS_P2;Temp;Humidity;BMP_temperature;BMP_pressure;BME280_temperature;BME280_humidity;BME280_pressure;Samples;Min_cycle;Max_cycle;Signal;HPM_P1;HPM_P2
2023/08/25 00:00:29;;;;;;;13.60;11.77;;;19.40;89.10;;;;;;5095612;28;20171;-90
2023/08/25 00:02:54;;;;;;;12.70;11.70;;;19.40;89.30;;;;;;5093780;28;20230;-90
2023/08/25 00:05:20;;;;;;;12.98;11.77;;;19.40;89.20;;;;;;5093868;28;20199;-90
2023/08/25 00:07:46;;;;;;;14.40;13.15;;;19.40;89.30;;;;;;5095228;28;20182;-90
2023/08/25 00:10:11;;;;;;;14.10;12.93;;;19.50;89.30;;;;;;5093673;28;20263;-90
2023/08/25 00:12:37;;;;;;;13.32;12.23;;;19.50;89.20;;;;;;5093631;28;20641;-90
2023/08/25 00:15:04;;;;;;;12.60;11.27;;;19.60;89.30;;;;;;5094853;28;20182;-90
2023/08/25 00:17:30;;;;;;;13.20;11.93;;;19.50;89.40;;;;;;5093497;28;20258;-90
2023/08/25 00:19:56;;;;;;;12.27;10.95;;;19.50;89.50;;;;;;5093491;28;20620;-90
2023/08/25 00:22:21;;;;;;;11.75;10.70;;;19.50;89.50;;;;;;5093482;28;20671;-90
2023/08/25 00:24:47;;;;;;;11.32;10.35;;;19.50;89.70;;;;;;5094616;28;20233;-90
2023/08/25 00:27:13;;;;;;;12.05;11.07;;;19.50;89.70;;;;;;5093372;28;20198;-90
2023/08/25 00:29:38;;;;;;;15.27;11.65;;;19.50;89.90;;;;;;5092660;28;20170;-90
2023/08/25 00:32:04;;;;;;;15.05;10.93;;;19.50;89.90;;;;;;5093044;28;20741;-90
2023/08/25 00:34:29;;;;;;;11.50;10.63;;;19.50;89.90;;;;;;5094311;28;20174;-90
2023/08/25 00:36:55;;;;;;;11.93;10.85;;;19.60;90.20;;;;;;5093381;28;20167;-90
2023/08/25 00:39:21;;;;;;;12.07;10.88;;;19.50;90.30;;;;;;5094328;28;20167;-90
2023/08/25 00:41:46;;;;;;;12.00;10.80;;;19.50;90.40;;;;;;5093029;28;20186;-90
2023/08/25 00:44:11;;;;;;;11.40;10.40;;;19.50;90.40;;;;;;5094080;28;20198;-90
2023/08/25 00:46:38;;;;;;;11.88;10.60;;;19.50;90.30;;;;;;5093166;28;20707;-90
2023/08/25 00:49:04;;;;;;;12.48;11.27;;;19.50;90.30;;;;;;5092897;28;20171;-91
2023/08/25 00:51:29;;;;;;;12.65;11.45;;;19.40;90.50;;;;;;5094161;28;20669;-90
2023/08/25 00:53:56;;;;;;;16.98;10.43;;;19.40;90.50;;;;;;5094039;28;20171;-90
2023/08/25 00:56:23;;;;;;;12.80;11.13;;;19.30;90.60;;;;;;5094660;28;20221;-90
2023/08/25 00:58:49;;;;;;;11.80;10.65;;;19.40;90.70;;;;;;5093861;28;20171;-90
2023/08/25 01:01:17;;;;;;;12.63;11.43;;;19.40;90.70;;;;;;5093928;28;20175;-90
2023/08/25 01:03:42;;;;;;;12.48;10.93;;;19.40;90.70;;;;;;5092508;28;20198;-90
2023/08/25 01:06:08;;;;;;;12.80;11.70;;;19.30;90.80;;;;;;5093865;28;20211;-90
2023/08/25 01:08:34;;;;;;;12.90;11.63;;;19.30;90.90;;;;;;5093792;28;20203;-90
2023/08/25 01:11:20;;;;;;;13.10;12.00;;;19.30;91.00;;;;;;5094480;28;20561;-90
2023/08/25 01:14:22;;;;;;;13.43;12.10;;;19.20;91.10;;;;;;5093881;28;20212;-90
2023/08/25 01:16:57;;;;;;;12.82;11.65;;;19.20;91.20;;;;;;5092439;28;20620;-90
2023/08/25 01:19:41;;;;;;;12.82;11.52;;;19.20;91.40;;;;;;5092476;28;20204;-90
2023/08/25 01:22:13;;;;;;;12.93;11.63;;;19.20;91.50;;;;;;5093987;28;20238;-90
2023/08/25 01:24:42;;;;;;;13.32;11.77;;;19.20;91.60;;;;;;5092295;28;20207;-90
2023/08/25 01:27:09;;;;;;;14.15;12.38;;;19.20;91.60;;;;;;5093544;28;20175;-90
2023/08/25 01:29:40;;;;;;;13.77;12.45;;;19.20;91.60;;;;;;5092491;28;20687;-90
2023/08/25 01:32:06;;;;;;;13.90;12.43;;;19.20;91.50;;;;;;5092312;28;20171;-90
2023/08/25 01:34:33;;;;;;;13.80;12.60;;;19.30;91.40;;;;;;5092543;28;20202;-90
2023/08/25 01:37:38;;;;;;;14.75;13.32;;;19.30;91.30;;;;;;5093488;28;20170;-90
2023/08/25 01:40:08;;;;;;;15.93;14.32;;;19.40;91.20;;;;;;5089598;28;20187;-90
2023/08/25 01:42:34;;;;;;;16.35;14.50;;;19.40;91.10;;;;;;5091721;28;20186;-90
2023/08/25 01:45:03;;;;;;;16.05;14.35;;;19.40;91.00;;;;;;5092011;28;20217;-90
2023/08/25 01:47:31;;;;;;;21.10;18.95;;;19.40;91.10;;;;;;5092097;28;20650;-89
2023/08/25 01:49:57;;;;;;;21.48;19.23;;;19.30;91.20;;;;;;5092316;28;20542;-90
2023/08/25 01:52:23;;;;;;;19.98;17.60;;;19.30;91.30;;;;;;5093223;28;20170;-90
2023/08/25 01:54:50;;;;;;;18.10;15.32;;;19.30;91.30;;;;;;5091930;28;20209;-90
2023/08/25 01:57:16;;;;;;;18.55;16.67;;;19.20;91.40;;;;;;5093143;28;20171;-89
2023/08/25 01:59:41;;;;;;;18.85;16.85;;;19.20;91.40;;;;;;5091971;28;20392;-90
2023/08/25 02:02:07;;;;;;;19.63;17.63;;;19.30;91.40;;;;;;5092405;28;20178;-89
2023/08/25 02:04:32;;;;;;;24.20;19.00;;;19.40;91.50;;;;;;5091784;28;20217;-90
2023/08/25 02:06:58;;;;;;;22.25;20.05;;;19.40;91.40;;;;;;5091876;28;20174;-89
2023/08/25 02:09:23;;;;;;;22.00;19.88;;;19.40;91.40;;;;;;5093003;28;20526;-89
2023/08/25 02:11:49;;;;;;;26.20;20.10;;;19.50;91.20;;;;;;5092705;28;20561;-90
2023/08/25 02:14:15;;;;;;;27.00;21.25;;;19.50;91.00;;;;;;5091769;28;20175;-90
2023/08/25 02:16:40;;;;;;;21.98;19.35;;;19.60;90.90;;;;;;5092953;28;20174;-89
2023/08/25 02:19:06;;;;;;;24.85;20.02;;;19.60;90.90;;;;;;5091784;28;20182;-89
2023/08/25 02:21:31;;;;;;;25.27;20.23;;;19.60;90.90;;;;;;5093297;28;20690;-89
2023/08/25 02:23:57;;;;;;;22.83;20.48;;;19.50;91.00;;;;;;5092965;28;20205;-90
2023/08/25 02:26:22;;;;;;;28.17;21.20;;;19.50;91.00;;;;;;5091623;28;20194;-90
2023/08/25 02:28:48;;;;;;;24.25;21.38;;;19.60;91.10;;;;;;5093368;28;20174;-89
2023/08/25 02:31:13;;;;;;;27.73;21.60;;;19.50;91.10;;;;;;5092927;28;20170;-89
2023/08/25 02:33:39;;;;;;;24.30;21.67;;;19.50;91.10;;;;;;5091708;28;20174;-90
2023/08/25 02:36:04;;;;;;;25.73;21.15;;;19.50;91.10;;;;;;5091649;28;20198;-90
2023/08/25 02:38:30;;;;;;;25.02;21.80;;;19.50;91.20;;;;;;5091595;28;20179;-89
2023/08/25 02:40:56;;;;;;;25.83;21.38;;;19.50;91.20;;;;;;5091645;28;20174;-89
2023/08/25 02:43:21;;;;;;;;;;;19.50;91.30;;;;;;5091736;28;20222;-89
2023/08/25 02:45:47;;;;;;;25.90;22.75;;;19.40;91.40;;;;;;5091562;28;20546;-89
2023/08/25 02:48:12;;;;;;;24.48;21.85;;;19.40;91.50;;;;;;5093078;28;20250;-89
2023/08/25 02:50:38;;;;;;;26.65;22.02;;;19.30;91.60;;;;;;5092118;28;20186;-90
2023/08/25 02:53:04;;;;;;;31.80;22.80;;;19.30;91.70;;;;;;5093709;28;20186;-89
2023/08/25 02:55:30;;;;;;;26.08;22.60;;;19.30;91.70;;;;;;5094962;28;20297;-89
2023/08/25 02:57:55;;;;;;;28.40;22.75;;;19.30;91.80;;;;;;5096545;28;20634;-89
2023/08/25 03:00:25;;;;;;;29.02;22.67;;;19.20;91.90;;;;;;5095090;28;20518;-89
2023/08/25 03:02:51;;;;;;;35.33;24.45;;;19.30;92.00;;;;;;5096504;28;20541;-90
2023/08/25 03:05:17;;;;;;;31.35;24.70;;;19.20;92.00;;;;;;5095098;28;20206;-90
2023/08/25 03:07:43;;;;;;;32.13;24.85;;;19.20;92.00;;;;;;5094972;28;20200;-90
2023/08/25 03:10:09;;;;;;;27.52;23.70;;;19.20;92.10;;;;;;5096416;28;20249;-90
2023/08/25 03:12:35;;;;;;;30.45;27.45;;;19.20;92.10;;;;;;5096100;28;20193;-90
2023/08/25 03:15:00;;;;;;;31.05;27.63;;;19.20;92.10;;;;;;5094675;28;20194;-90
2023/08/25 03:17:26;;;;;;;33.53;28.88;;;19.20;92.20;;;;;;5095978;28;20175;-90
2023/08/25 03:19:52;;;;;;;28.40;24.30;;;19.20;92.20;;;;;;5094725;28;20719;-90
2023/08/25 03:22:18;;;;;;;30.95;25.00;;;19.20;92.20;;;;;;5096196;28;20167;-90
2023/08/25 03:24:43;;;;;;;28.67;25.13;;;19.20;92.20;;;;;;5094381;28;20614;-90
2023/08/25 03:27:09;;;;;;;27.77;24.88;;;19.20;92.20;;;;;;5095766;28;20220;-90
2023/08/25 03:29:34;;;;;;;30.75;25.75;;;19.10;92.20;;;;;;5094496;28;20189;-90
2023/08/25 03:32:00;;;;;;;29.75;25.95;;;19.10;92.30;;;;;;5095609;28;20167;-90
2023/08/25 03:34:26;;;;;;;35.95;25.92;;;19.10;92.50;;;;;;5094464;28;20214;-90
2023/08/25 03:36:52;;;;;;;31.35;25.98;;;19.00;92.50;;;;;;5095515;28;20258;-90
2023/08/25 03:39:18;;;;;;;33.25;27.02;;;19.00;92.60;;;;;;5094619;28;20183;-90
2023/08/25 03:41:44;;;;;;;;;;;19.00;92.60;;;;;;5095905;28;20175;-90
2023/08/25 03:44:09;;;;;;;31.40;27.30;;;19.00;92.70;;;;;;5095480;28;20471;-90
2023/08/25 03:46:35;;;;;;;31.45;26.95;;;18.90;92.80;;;;;;5095595;28;20662;-90
2023/08/25 03:49:01;;;;;;;33.95;28.55;;;18.90;92.80;;;;;;5094172;28;20171;-90
2023/08/25 03:51:26;;;;;;;35.20;28.80;;;18.90;92.90;;;;;;5094253;28;20281;-90
2023/08/25 03:53:52;;;;;;;38.28;29.65;;;18.90;93.00;;;;;;5095365;28;20716;-90
2023/08/25 03:56:17;;;;;;;38.30;29.40;;;18.80;93.10;;;;;;5093839;28;20207;-90
2023/08/25 03:58:43;;;;;;;35.50;29.80;;;18.90;93.10;;;;;;5094199;28;20629;-90
2023/08/25 04:01:09;;;;;;;34.78;29.98;;;18.80;93.10;;;;;;5093960;28;20171;-90
2023/08/25 04:03:34;;;;;;;33.65;29.50;;;18.80;93.20;;;;;;5092977;28;20191;-90
2023/08/25 04:06:00;;;;;;;35.83;29.35;;;18.80;93.20;;;;;;5095183;28;20187;-90
2023/08/25 04:08:26;;;;;;;39.00;30.88;;;18.80;93.30;;;;;;5094092;28;20580;-90
2023/08/25 04:10:52;;;;;;;34.97;31.00;;;18.80;93.30;;;;;;5093696;28;20228;-90
2023/08/25 04:13:18;;;;;;;38.92;31.02;;;18.80;93.40;;;;;;5094894;28;20166;-90
2023/08/25 04:15:44;;;;;;;39.60;30.88;;;18.80;93.40;;;;;;5095145;28;20190;-90
2023/08/25 04:18:09;;;;;;;36.22;30.88;;;18.80;93.40;;;;;;5095066;28;20163;-90
2023/08/25 04:20:35;;;;;;;40.65;32.17;;;18.80;93.40;;;;;;5093504;28;20170;-90
2023/08/25 04:23:04;;;;;;;42.40;32.75;;;18.80;93.40;;;;;;5093437;28;20175;-90
2023/08/25 04:25:30;;;;;;;34.40;30.52;;;18.80;93.40;;;;;;5093183;28;20562;-90
2023/08/25 04:27:58;;;;;;;37.92;32.40;;;18.80;93.40;;;;;;5094505;28;20173;-90
2023/08/25 04:30:24;;;;;;;40.28;32.30;;;18.80;93.40;;;;;;5093338;28;20548;-90
2023/08/25 04:32:51;;;;;;;40.88;34.33;;;18.80;93.50;;;;;;5093312;28;20174;-91
2023/08/25 04:35:16;;;;;;;39.03;33.00;;;18.80;93.70;;;;;;5094350;28;20187;-90
2023/08/25 04:37:47;;;;;;;43.63;34.08;;;18.80;93.70;;;;;;5094350;28;20235;-90
2023/08/25 04:40:13;;;;;;;43.35;33.50;;;18.90;93.70;;;;;;5094691;28;20224;-90
2023/08/25 04:42:39;;;;;;;44.78;33.55;;;18.90;93.70;;;;;;5093220;28;20193;-91
2023/08/25 04:45:05;;;;;;;45.42;33.05;;;19.00;93.70;;;;;;5092803;28;20607;-90
2023/08/25 04:47:30;;;;;;;42.50;34.85;;;19.00;93.70;;;;;;5093188;28;20235;-91
2023/08/25 04:49:57;;;;;;;44.83;36.20;;;19.00;93.70;;;;;;5093093;28;20171;-91
2023/08/25 04:52:23;;;;;;;51.13;37.78;;;19.00;93.70;;;;;;5092777;28;20175;-91
2023/08/25 04:54:49;;;;;;;52.97;39.15;;;19.10;93.70;;;;;;5094064;28;20217;-90
2023/08/25 04:57:15;;;;;;;51.17;40.05;;;19.10;93.60;;;;;;5094127;28;20530;-90
2023/08/25 04:59:40;;;;;;;56.85;42.42;;;19.10;93.70;;;;;;5092680;28;20178;-91
2023/08/25 05:02:06;;;;;;;53.65;41.67;;;19.10;93.60;;;;;;5094004;28;20642;-91
2023/08/25 05:04:31;;;;;;;59.67;45.00;;;19.20;93.60;;;;;;5093528;28;20552;-91
2023/08/25 05:06:57;;;;;;;57.08;44.10;;;19.20;93.60;;;;;;5092656;28;20706;-91
2023/08/25 05:09:22;;;;;;;62.28;48.13;;;19.20;93.70;;;;;;5094224;28;20178;-90
2023/08/25 05:11:48;;;;;;;66.47;49.85;;;19.20;93.70;;;;;;5093791;28;20170;-91
2023/08/25 05:14:13;;;;;;;69.15;52.20;;;19.20;93.70;;;;;;5092816;28;20261;-91
2023/08/25 05:16:39;;;;;;;75.90;56.40;;;19.20;93.70;;;;;;5092366;28;20173;-91
2023/08/25 05:19:05;;;;;;;76.32;53.75;;;19.30;93.70;;;;;;5092519;28;20231;-90
2023/08/25 05:21:31;;;;;;;73.68;56.00;;;19.30;93.70;;;;;;5092462;28;20174;-90
2023/08/25 05:24:19;;;;;;;71.60;55.67;;;19.30;93.70;;;;;;5092417;28;20218;-91
2023/08/25 05:26:51;;;;;;;81.95;56.47;;;19.30;93.70;;;;;;5092388;28;20216;-91
2023/08/25 05:29:18;;;;;;;77.50;55.65;;;19.30;93.70;;;;;;5092700;28;20250;-91
2023/08/25 05:31:43;;;;;;;74.45;55.97;;;19.40;93.60;;;;;;5092599;28;20194;-91
2023/08/25 05:34:09;;;;;;;78.93;57.50;;;19.30;93.60;;;;;;5092292;28;20187;-91
2023/08/25 05:36:34;;;;;;;73.67;55.30;;;19.30;93.50;;;;;;5092955;28;20202;-91
2023/08/25 05:39:01;;;;;;;74.23;57.00;;;19.30;93.50;;;;;;5093439;28;20182;-91
2023/08/25 05:41:27;;;;;;;80.53;58.27;;;19.40;93.50;;;;;;5093440;28;20170;-91
2023/08/25 05:43:53;;;;;;;78.50;57.38;;;19.40;93.50;;;;;;5092127;28;20061;-91
2023/08/25 05:46:19;;;;;;;80.82;58.13;;;19.40;93.50;;;;;;5092448;28;20246;-91
2023/08/25 05:48:44;;;;;;;79.18;58.47;;;19.50;93.50;;;;;;5096971;28;20171;-90
2023/08/25 05:51:10;;;;;;;79.57;57.20;;;19.50;93.50;;;;;;5096588;28;20307;-90
2023/08/25 05:53:35;;;;;;;80.32;58.15;;;19.50;93.50;;;;;;5093318;28;20202;-90
2023/08/25 05:56:01;;;;;;;84.07;63.25;;;19.60;93.60;;;;;;5091991;28;20233;-91
2023/08/25 05:58:26;;;;;;;72.88;60.30;;;19.60;93.60;;;;;;5092238;28;20557;-90
2023/08/25 06:00:52;;;;;;;79.30;58.05;;;19.70;93.60;;;;;;5092025;28;20177;-90
2023/08/25 06:03:18;;;;;;;71.80;55.20;;;19.70;93.60;;;;;;5091926;28;20196;-90
2023/08/25 06:05:46;;;;;;;76.72;55.28;;;19.70;93.50;;;;;;5092153;28;20221;-91
2023/08/25 06:08:12;;;;;;;75.68;59.25;;;19.70;93.40;;;;;;5092061;28;20174;-90
2023/08/25 06:10:38;;;;;;;63.92;52.72;;;19.80;93.40;;;;;;5093388;28;20175;-89
2023/08/25 06:13:03;;;;;;;65.93;51.42;;;19.80;93.30;;;;;;5092465;28;20174;-90
2023/08/25 06:15:29;;;;;;;58.92;48.72;;;19.80;93.20;;;;;;5094275;28;20685;-91
2023/08/25 06:17:54;;;;;;;63.10;47.97;;;19.90;93.20;;;;;;5091739;28;20186;-91
2023/08/25 06:20:23;;;;;;;62.97;48.70;;;19.90;93.10;;;;;;5092115;28;20189;-90
2023/08/25 06:22:48;;;;;;;53.33;45.22;;;20.00;92.90;;;;;;5093063;28;20254;-90
2023/08/25 06:25:14;;;;;;;62.90;48.63;;;20.00;92.80;;;;;;5091607;28;20301;-90
2023/08/25 06:27:40;;;;;;;57.03;44.42;;;20.00;92.70;;;;;;5093566;28;20192;-91
2023/08/25 06:30:06;;;;;;;57.58;44.28;;;20.10;92.70;;;;;;5095765;28;20697;-91
2023/08/25 06:32:32;;;;;;;55.55;44.90;;;20.10;92.40;;;;;;5095840;28;20177;-91
2023/08/25 06:34:57;;;;;;;53.17;42.63;;;20.10;92.40;;;;;;5095833;28;20203;-91
2023/08/25 06:37:23;;;;;;;51.30;43.13;;;20.10;92.30;;;;;;5095481;28;20271;-91
2023/08/25 06:39:48;;;;;;;52.05;44.60;;;20.10;92.20;;;;;;5095882;28;20201;-91
2023/08/25 06:42:14;;;;;;;56.78;43.78;;;20.10;92.10;;;;;;5095388;28;20175;-90
2023/08/25 06:44:40;;;;;;;52.63;43.67;;;20.20;92.10;;;;;;5096828;28;20574;-91
2023/08/25 06:47:06;;;;;;;54.28;43.67;;;20.20;91.90;;;;;;5095267;28;20178;-90
2023/08/25 06:49:32;;;;;;;47.30;41.70;;;20.20;91.90;;;;;;5096800;28;20212;-90
2023/08/25 06:51:57;;;;;;;46.80;41.72;;;20.20;91.80;;;;;;5096812;28;20167;-90
2023/08/25 06:54:24;;;;;;;50.28;42.80;;;20.20;91.70;;;;;;5095984;28;20206;-89
2023/08/25 06:56:50;;;;;;;48.90;42.50;;;20.20;91.80;;;;;;5100202;28;20175;-89
2023/08/25 06:59:16;;;;;;;50.83;42.17;;;20.30;91.80;;;;;;5097667;28;20205;-91
2023/08/25 07:01:41;;;;;;;48.90;40.80;;;20.40;91.80;;;;;;5096657;28;20525;-91
2023/08/25 07:04:07;;;;;;;47.97;41.55;;;20.50;91.70;;;;;;5096136;28;20566;-90
2023/08/25 07:06:33;;;;;;;44.70;38.45;;;20.50;91.40;;;;;;5096089;28;20213;-90
2023/08/25 07:08:58;;;;;;;50.05;41.75;;;20.50;91.10;;;;;;5096031;28;20171;-89
2023/08/25 07:11:26;;;;;;;47.28;39.40;;;20.50;90.80;;;;;;5095597;28;20179;-89
2023/08/25 07:13:53;;;;;;;46.42;39.13;;;20.60;90.70;;;;;;5096068;28;20545;-90
2023/08/25 07:16:19;;;;;;;50.03;38.75;;;20.70;90.60;;;;;;5095905;28;20186;-90
2023/08/25 07:18:44;;;;;;;47.70;39.35;;;20.70;90.40;;;;;;5095995;28;20591;-90
2023/08/25 07:21:11;;;;;;;45.28;38.42;;;20.80;90.10;;;;;;5095951;28;20189;-90
2023/08/25 07:23:37;;;;;;;51.20;39.47;;;20.80;90.00;;;;;;5095708;28;20207;-90
2023/08/25 07:26:03;;;;;;;44.80;38.30;;;20.90;90.20;;;;;;5094410;28;20674;-90
2023/08/25 07:28:29;;;;;;;44.92;40.15;;;21.10;90.30;;;;;;5094587;28;20213;-90
2023/08/25 07:30:56;;;;;;;44.13;38.50;;;21.10;89.60;;;;;;5094877;28;20195;-91
2023/08/25 07:33:22;;;;;;;45.58;38.50;;;21.20;89.50;;;;;;5095920;28;20163;-90
2023/08/25 07:35:47;;;;;;;44.05;39.25;;;21.20;89.40;;;;;;5095585;28;20335;-90
2023/08/25 07:38:13;;;;;;;42.20;37.40;;;21.10;88.30;;;;;;5094392;28;20254;-90
2023/08/25 07:40:39;;;;;;;42.53;37.92;;;21.00;88.90;;;;;;5094581;28;20176;-89
2023/08/25 07:43:04;;;;;;;44.13;37.78;;;21.00;89.00;;;;;;5094813;28;20642;-91
2023/08/25 07:45:31;;;;;;;41.42;37.05;;;21.00;89.10;;;;;;5095820;28;20678;-90
2023/08/25 07:47:59;;;;;;;43.53;36.03;;;20.90;89.20;;;;;;5095686;28;20247;-89
2023/08/25 07:50:26;;;;;;;41.47;37.05;;;21.00;89.40;;;;;;5094108;28;20220;-90
2023/08/25 07:52:52;;;;;;;45.35;37.38;;;21.00;89.30;;;;;;5094286;28;20182;-90
2023/08/25 07:55:18;;;;;;;46.45;36.42;;;20.90;89.20;;;;;;5093609;28;20218;-90
2023/08/25 07:57:46;;;;;;;46.38;35.88;;;20.90;89.10;;;;;;5096003;28;20214;-90
2023/08/25 08:00:15;;;;;;;42.58;36.05;;;20.90;88.90;;;;;;5094159;28;20269;-90
2023/08/25 08:02:48;;;;;;;43.83;38.75;;;21.00;89.10;;;;;;5093986;28;20253;-90
2023/08/25 08:05:15;;;;;;;46.83;36.92;;;21.10;89.00;;;;;;5094954;28;20596;-90
2023/08/25 08:07:42;;;;;;;41.65;37.03;;;21.10;88.80;;;;;;5101966;28;20163;-90
2023/08/25 08:10:08;;;;;;;41.78;37.58;;;21.20;88.90;;;;;;5102478;28;20638;-90
2023/08/25 08:12:34;;;;;;;40.80;36.60;;;21.20;88.50;;;;;;5103849;28;20174;-90
2023/08/25 08:15:00;;;;;;;45.53;37.22;;;21.30;88.70;;;;;;5103605;28;20194;-90
2023/08/25 08:17:26;;;;;;;41.75;37.38;;;21.20;88.40;;;;;;5101771;28;20193;-90
2023/08/25 08:19:52;;;;;;;41.58;37.33;;;21.30;88.80;;;;;;5103593;28;20690;-90
2023/08/25 08:22:17;;;;;;;40.33;36.28;;;21.20;88.40;;;;;;5101370;28;20197;-90
2023/08/25 08:24:50;;;;;;;42.45;37.60;;;21.20;88.50;;;;;;5102220;28;20214;-90
2023/08/25 08:27:19;;;;;;;41.95;37.47;;;21.10;88.50;;;;;;5104365;28;20228;-90
2023/08/25 08:29:46;;;;;;;46.60;39.75;;;21.10;88.60;;;;;;5103182;28;20540;-90
2023/08/25 08:32:13;;;;;;;45.03;38.65;;;21.00;89.00;;;;;;5101673;28;20257;-90
2023/08/25 08:34:38;;;;;;;46.83;40.55;;;21.10;88.80;;;;;;5101898;28;20198;-90
2023/08/25 08:37:07;;;;;;;44.88;39.88;;;21.20;88.40;;;;;;5102459;28;20255;-90
2023/08/25 08:39:33;;;;;;;44.33;39.40;;;21.20;88.30;;;;;;5102280;28;20205;-90
2023/08/25 08:42:01;;;;;;;43.45;38.08;;;21.40;88.30;;;;;;5102063;28;20187;-90
2023/08/25 08:44:29;;;;;;;43.58;38.97;;;21.30;87.60;;;;;;5102183;28;20195;-90
2023/08/25 08:46:56;;;;;;;45.28;38.40;;;21.50;88.00;;;;;;5101275;28;20228;-90
2023/08/25 08:49:23;;;;;;;41.70;37.35;;;21.40;87.50;;;;;;5099809;28;20171;-90
2023/08/25 08:51:50;;;;;;;45.63;38.38;;;21.40;87.70;;;;;;5100595;28;20614;-90
2023/08/25 08:54:19;;;;;;;41.25;36.80;;;21.40;87.10;;;;;;5102420;28;20182;-89
2023/08/25 08:56:48;;;;;;;45.45;40.83;;;21.60;87.40;;;;;;5101343;28;20207;-90
2023/08/25 08:59:14;;;;;;;47.20;42.10;;;21.50;86.80;;;;;;5102284;28;20640;-90
2023/08/25 09:01:41;;;;;;;41.67;37.20;;;21.40;86.90;;;;;;5103570;28;20322;-90
2023/08/25 09:04:08;;;;;;;37.40;33.38;;;21.50;86.80;;;;;;5102359;28;20206;-90
2023/08/25 09:06:36;;;;;;;37.63;33.67;;;21.50;86.70;;;;;;5101371;28;20183;-90
2023/08/25 09:09:05;;;;;;;41.83;37.15;;;21.40;86.80;;;;;;5101157;28;20171;-90
2023/08/25 09:11:31;;;;;;;44.35;39.88;;;21.40;86.60;;;;;;5100083;28;20181;-90
2023/08/25 09:13:58;;;;;;;38.53;34.40;;;21.40;86.70;;;;;;5101295;28;20265;-90
2023/08/25 09:16:25;;;;;;;40.38;35.38;;;21.40;86.90;;;;;;5101370;28;20210;-90
2023/08/25 09:18:52;;;;;;;46.53;41.65;;;21.40;86.70;;;;;;5100686;28;20166;-90
2023/08/25 09:21:19;;;;;;;44.20;39.10;;;21.30;86.60;;;;;;5101916;28;20175;-90
2023/08/25 09:23:54;;;;;;;42.55;37.88;;;21.40;86.90;;;;;;5099829;28;20194;-89
2023/08/25 09:26:20;;;;;;;37.70;33.45;;;21.50;86.60;;;;;;5099917;28;20738;-90
2023/08/25 09:28:45;;;;;;;37.65;32.45;;;21.60;86.80;;;;;;5100683;28;20205;-90
2023/08/25 09:31:28;;;;;;;38.85;31.63;;;21.80;86.90;;;;;;5101316;28;20167;-90
2023/08/25 09:34:05;;;;;;;39.25;34.15;;;21.90;86.20;;;;;;5099175;28;20182;-90
2023/08/25 09:36:31;;;;;;;38.83;32.60;;;21.90;85.00;;;;;;5100052;28;20721;-90
2023/08/25 09:38:57;;;;;;;36.08;31.98;;;22.00;85.70;;;;;;5100738;28;20213;-90
2023/08/25 09:41:27;;;;;;;37.88;33.95;;;22.20;85.50;;;;;;5098987;28;20258;-90
2023/08/25 09:43:57;;;;;;;35.72;32.05;;;22.20;84.80;;;;;;5100051;28;20225;-90
2023/08/25 09:46:33;;;;;;;37.28;33.38;;;22.30;84.70;;;;;;5098369;28;20196;-90
2023/08/25 09:49:15;;;;;;;37.72;31.42;;;22.40;84.00;;;;;;5100516;28;20174;-90
2023/08/25 09:51:47;;;;;;;36.72;32.78;;;22.50;84.10;;;;;;5100891;28;20152;-90
2023/08/25 09:54:15;;;;;;;35.35;31.63;;;22.70;83.40;;;;;;5100367;28;20693;-90
2023/08/25 09:56:42;;;;;;;43.72;39.45;;;22.50;83.50;;;;;;5101940;28;20198;-90
2023/08/25 09:59:09;;;;;;;41.38;37.53;;;22.40;83.20;;;;;;5099930;28;20200;-90
2023/08/25 10:01:39;;;;;;;34.00;30.60;;;22.50;83.60;;;;;;5100435;28;20239;-90
2023/08/25 10:04:06;;;;;;;34.33;30.48;;;22.60;83.80;;;;;;5104928;28;20198;-90
2023/08/25 10:06:33;;;;;;;32.10;28.65;;;22.50;83.30;;;;;;5104783;28;20187;-90
2023/08/25 10:08:59;;;;;;;33.75;29.90;;;22.60;83.60;;;;;;5104928;28;20196;-90
2023/08/25 10:11:30;;;;;;;34.63;29.40;;;22.50;83.50;;;;;;5105652;28;20223;-90
2023/08/25 10:13:59;;;;;;;35.08;29.60;;;22.40;82.80;;;;;;5102056;28;20179;-90
2023/08/25 10:16:27;;;;;;;32.17;29.20;;;22.30;83.20;;;;;;5103994;28;20266;-90
2023/08/25 10:18:56;;;;;;;31.60;28.43;;;22.40;83.50;;;;;;5104555;28;20240;-90
2023/08/25 10:21:23;;;;;;;33.67;30.08;;;22.40;83.10;;;;;;5104805;28;20703;-90
2023/08/25 10:23:52;;;;;;;31.98;28.65;;;22.40;82.90;;;;;;5104340;28;20199;-90
2023/08/25 10:26:19;;;;;;;31.33;28.02;;;22.40;83.00;;;;;;5103383;28;20201;-90
2023/08/25 10:28:45;;;;;;;30.92;27.63;;;22.20;83.00;;;;;;5103299;28;20261;-90
2023/08/25 10:31:12;;;;;;;29.98;27.20;;;22.20;83.50;;;;;;5104101;28;20185;-90
2023/08/25 10:33:48;;;;;;;32.40;28.42;;;22.10;83.70;;;;;;5102140;28;20199;-90
2023/08/25 10:36:21;;;;;;;33.63;29.30;;;22.00;83.90;;;;;;5102776;28;20194;-90
2023/08/25 10:38:59;;;;;;;32.38;28.30;;;22.00;84.10;;;;;;5103355;28;20177;-90
2023/08/25 10:41:26;;;;;;;30.35;27.05;;;22.10;83.60;;;;;;5102673;28;20178;-90
2023/08/25 10:43:54;;;;;;;33.55;26.90;;;22.20;83.90;;;;;;5102491;28;20195;-90
2023/08/25 10:46:22;;;;;;;32.17;26.27;;;22.20;83.70;;;;;;5102178;28;20191;-90
2023/08/25 10:48:51;;;;;;;29.27;26.27;;;22.20;83.70;;;;;;5102204;28;20635;-89
2023/08/25 10:51:21;;;;;;;29.27;26.17;;;22.10;84.10;;;;;;5103955;28;20668;-90
2023/08/25 10:53:50;;;;;;;27.40;24.58;;;22.20;84.30;;;;;;5103106;28;20185;-90
2023/08/25 10:56:25;;;;;;;31.15;26.15;;;22.10;84.30;;;;;;5102334;28;20556;-90
2023/08/25 10:59:06;;;;;;;30.27;26.00;;;22.00;84.40;;;;;;5100609;28;20166;-90
2023/08/25 11:01:37;;;;;;;28.00;25.13;;;21.90;84.10;;;;;;5101826;28;20162;-90
2023/08/25 11:04:06;;;;;;;29.42;26.48;;;21.80;84.30;;;;;;5101524;28;20261;-90
2023/08/25 11:06:42;;;;;;;31.80;25.42;;;21.90;84.20;;;;;;5102644;28;20281;-90
2023/08/25 11:09:09;;;;;;;27.73;24.45;;;22.10;84.10;;;;;;5101091;28;20616;-90
2023/08/25 11:11:37;;;;;;;29.88;25.63;;;22.10;83.60;;;;;;5102069;28;20174;-90
2023/08/25 11:14:03;;;;;;;28.48;25.50;;;22.10;83.90;;;;;;5100452;28;20207;-90
2023/08/25 11:16:29;;;;;;;29.48;26.48;;;22.10;83.00;;;;;;5100263;28;20195;-90
2023/08/25 11:18:55;;;;;;;33.45;25.73;;;22.20;82.70;;;;;;5103896;28;20186;-89
2023/08/25 11:21:25;;;;;;;26.67;23.98;;;22.30;82.30;;;;;;5100806;28;20638;-89
2023/08/25 11:23:51;;;;;;;30.23;22.13;;;22.40;82.60;;;;;;5098606;28;20195;-90
2023/08/25 11:26:17;;;;;;;25.58;22.83;;;22.70;83.20;;;;;;5098058;28;20186;-90
2023/08/25 11:28:46;;;;;;;29.88;26.95;;;22.80;82.20;;;;;;5096431;28;20428;-90
2023/08/25 11:31:12;;;;;;;28.30;25.30;;;22.90;81.30;;;;;;5096576;28;20524;-90
2023/08/25 11:33:38;;;;;;;33.25;25.95;;;23.10;81.10;;;;;;5096265;28;20190;-90
2023/08/25 11:36:04;;;;;;;27.75;24.80;;;22.90;80.50;;;;;;5096929;28;20182;-90
2023/08/25 11:38:33;;;;;;;36.35;32.45;;;22.70;81.20;;;;;;5095303;28;20543;-90
2023/08/25 11:40:58;;;;;;;36.63;33.20;;;22.70;81.60;;;;;;5094913;28;20610;-90
2023/08/25 11:43:36;;;;;;;28.15;25.45;;;22.70;81.50;;;;;;5095094;28;20202;-92
2023/08/25 11:46:05;;;;;;;29.13;25.70;;;22.60;80.80;;;;;;5093982;28;20218;-90
2023/08/25 11:48:33;;;;;;;27.65;25.15;;;22.50;81.40;;;;;;5095506;28;20167;-91
2023/08/25 11:51:00;;;;;;;31.17;25.05;;;22.40;81.40;;;;;;5095098;28;20178;-90
2023/08/25 11:53:26;;;;;;;27.50;24.50;;;22.30;81.80;;;;;;5093766;28;20253;-90
2023/08/25 11:56:02;;;;;;;27.45;23.77;;;22.30;82.40;;;;;;5056975;28;1058908;-90
2023/08/25 11:58:34;;;;;;;23.67;21.40;;;22.20;82.80;;;;;;5095882;28;20162;-90
2023/08/25 12:01:07;;;;;;;27.23;23.38;;;22.20;83.00;;;;;;5095975;28;20197;-90
2023/08/25 12:03:34;;;;;;;24.27;21.88;;;22.20;83.00;;;;;;5094594;28;20273;-91
2023/08/25 12:06:05;;;;;;;27.20;24.52;;;22.30;83.30;;;;;;5096028;28;20197;-91
2023/08/25 12:08:31;;;;;;;33.33;30.23;;;22.20;83.70;;;;;;5096094;28;20151;-91
2023/08/25 12:10:57;;;;;;;33.05;30.25;;;22.20;84.30;;;;;;5097027;28;20259;-91
2023/08/25 12:13:24;;;;;;;35.67;31.88;;;22.20;84.70;;;;;;5097264;28;20205;-91
2023/08/25 12:15:53;;;;;;;27.90;25.17;;;22.20;85.00;;;;;;5097346;28;20216;-91
2023/08/25 12:18:19;;;;;;;29.00;26.08;;;22.10;85.10;;;;;;5096499;28;20177;-91
2023/08/25 12:20:45;;;;;;;29.38;26.27;;;21.90;85.60;;;;;;5096412;28;20175;-91
2023/08/25 12:23:10;;;;;;;32.63;26.23;;;21.80;86.40;;;;;;5095096;28;20558;-91
2023/08/25 12:25:36;;;;;;;29.75;26.67;;;21.80;87.20;;;;;;5095557;28;20255;-91
2023/08/25 12:28:01;;;;;;;30.10;27.05;;;21.80;87.30;;;;;;5096767;28;20175;-91